Virtual Norwegian is not affiliated with Norwegian Air Shuttle in any way.
If you are looking for the real "Norwegian", or you wish to book Norwegian flights, please visit Norwegian.com


We use cookies to ensure you get the best experience on our website.   ACCEPT

ESNS - SFT - Skelleftea (Skelleftea)

General Info Alternate Airport
ICAO: ESNS Elevation: 157 ft ICAO: ESPA
IATA: SFT Country: Sweden IATA: LLA
City: Skelleftea Charts: Log in to view charts City: Lulea
Name: Skelleftea Hub: No Name Kallax
General Info
ICAO: ESNS
IATA: SFT
City: Skelleftea
Name: Skelleftea
Elevation: 157 ft
Country: Sweden
Charts: Log in to view charts
Hub: No
 
Alternate Airport
ICAO: ESPA
IATA: LLA
City: Lulea
Name: Kallax

Weather
220850Z 03011KT 010V070 9999 FEW018 13/09 Q1015
Weather
220850Z 03011KT 010V070 9999 FEW018 13/09 Q1015

Runway Info
10
Length ILS/LOC Heading
2100 m N/A 106
28
Length ILS/LOC Course
2100 m 109.50 279

NOTAMs
NOTAMs currently unavailable.
NOTAMs
NOTAMs currently unavailable

Route map
Airport
Airport (hub)